sensor_id;sensor_type;location;lat;lon;timestamp;temperature;humidity
51637;DHT22;37713;53.254;6.460;2023-06-22T00:00:50;17.30;99.90
51637;DHT22;37713;53.254;6.460;2023-06-22T00:03:18;17.30;99.90
51637;DHT22;37713;53.254;6.460;2023-06-22T00:05:47;17.20;99.90
51637;DHT22;37713;53.254;6.460;2023-06-22T00:08:13;17.30;99.90
51637;DHT22;37713;53.254;6.460;2023-06-22T00:10:39;17.20;99.90
51637;DHT22;37713;53.254;6.460;2023-06-22T00:13:06;17.20;99.90
51637;DHT22;37713;53.254;6.460;2023-06-22T00:15:32;17.10;99.90
51637;DHT22;37713;53.254;6.460;2023-06-22T00:17:58;17.10;99.90
51637;DHT22;37713;53.254;6.460;2023-06-22T00:20:25;17.10;99.90
51637;DHT22;37713;53.254;6.460;2023-06-22T00:22:54;17.10;99.90
51637;DHT22;37713;53.254;6.460;2023-06-22T00:25:20;17.00;99.90
51637;DHT22;37713;53.254;6.460;2023-06-22T00:27:46;16.90;99.90
51637;DHT22;37713;53.254;6.460;2023-06-22T00:30:12;16.90;99.90
51637;DHT22;37713;53.254;6.460;2023-06-22T00:32:38;16.90;99.90
51637;DHT22;37713;53.254;6.460;2023-06-22T00:35:04;16.90;99.90
51637;DHT22;37713;53.254;6.460;2023-06-22T00:37:30;16.90;99.90
51637;DHT22;37713;53.254;6.460;2023-06-22T00:39:59;16.90;99.90
51637;DHT22;37713;53.254;6.460;2023-06-22T00:42:24;16.90;99.90
51637;DHT22;37713;53.254;6.460;2023-06-22T00:44:50;16.80;99.90
51637;DHT22;37713;53.254;6.460;2023-06-22T00:47:17;16.80;99.90
51637;DHT22;37713;53.254;6.460;2023-06-22T00:49:44;16.70;99.90
51637;DHT22;37713;53.254;6.460;2023-06-22T00:52:11;16.80;99.90
51637;DHT22;37713;53.254;6.460;2023-06-22T00:54:43;16.70;99.90
51637;DHT22;37713;53.254;6.460;2023-06-22T00:57:13;16.70;99.90
51637;DHT22;37713;53.254;6.460;2023-06-22T00:59:45;16.70;99.90
51637;DHT22;37713;53.254;6.460;2023-06-22T01:02:11;16.70;99.90
51637;DHT22;37713;53.254;6.460;2023-06-22T01:04:38;16.70;99.90
51637;DHT22;37713;53.254;6.460;2023-06-22T01:12:53;16.60;99.90
51637;DHT22;37713;53.254;6.460;2023-06-22T01:15:31;16.60;99.90
51637;DHT22;37713;53.254;6.460;2023-06-22T01:17:59;16.60;99.90
51637;DHT22;37713;53.254;6.460;2023-06-22T01:20:29;16.50;99.90
51637;DHT22;37713;53.254;6.460;2023-06-22T01:24:03;16.50;99.90
51637;DHT22;37713;53.254;6.460;2023-06-22T01:28:48;16.50;99.90
51637;DHT22;37713;53.254;6.460;2023-06-22T01:31:19;16.40;99.90
51637;DHT22;37713;53.254;6.460;2023-06-22T01:33:50;16.40;99.90
51637;DHT22;37713;53.254;6.460;2023-06-22T01:36:17;16.40;99.90
51637;DHT22;37713;53.254;6.460;2023-06-22T01:38:44;16.40;99.90
51637;DHT22;37713;53.254;6.460;2023-06-22T01:41:11;16.40;99.90
51637;DHT22;37713;53.254;6.460;2023-06-22T01:43:38;16.40;99.90
51637;DHT22;37713;53.254;6.460;2023-06-22T01:46:04;16.30;99.90
51637;DHT22;37713;53.254;6.460;2023-06-22T01:48:30;16.30;99.90
51637;DHT22;37713;53.254;6.460;2023-06-22T01:50:57;16.40;99.90
51637;DHT22;37713;53.254;6.460;2023-06-22T01:53:23;16.40;99.90
51637;DHT22;37713;53.254;6.460;2023-06-22T01:55:49;16.40;99.90
51637;DHT22;37713;53.254;6.460;2023-06-22T01:58:15;16.40;99.90
51637;DHT22;37713;53.254;6.460;2023-06-22T02:01:31;16.40;99.90
51637;DHT22;37713;53.254;6.460;2023-06-22T02:03:53;16.40;99.90
51637;DHT22;37713;53.254;6.460;2023-06-22T02:06:27;16.30;99.90
51637;DHT22;37713;53.254;6.460;2023-06-22T02:08:59;16.30;99.90
51637;DHT22;37713;53.254;6.460;2023-06-22T02:11:28;16.30;99.90
51637;DHT22;37713;53.254;6.460;2023-06-22T02:13:56;16.20;99.90
51637;DHT22;37713;53.254;6.460;2023-06-22T02:16:23;16.10;99.90
51637;DHT22;37713;53.254;6.460;2023-06-22T02:18:50;16.20;99.90
51637;DHT22;37713;53.254;6.460;2023-06-22T02:21:19;16.10;99.90
51637;DHT22;37713;53.254;6.460;2023-06-22T02:23:45;16.00;99.90
51637;DHT22;37713;53.254;6.460;2023-06-22T02:26:12;15.90;99.90
51637;DHT22;37713;53.254;6.460;2023-06-22T02:28:38;15.80;99.90
51637;DHT22;37713;53.254;6.460;2023-06-22T02:31:04;15.80;99.90
51637;DHT22;37713;53.254;6.460;2023-06-22T02:33:30;15.70;99.90
51637;DHT22;37713;53.254;6.460;2023-06-22T02:35:56;15.70;99.90
51637;DHT22;37713;53.254;6.460;2023-06-22T02:38:21;15.60;99.90
51637;DHT22;37713;53.254;6.460;2023-06-22T02:40:50;15.60;99.90
51637;DHT22;37713;53.254;6.460;2023-06-22T02:43:16;15.50;99.90
51637;DHT22;37713;53.254;6.460;2023-06-22T02:45:42;15.50;99.90
51637;DHT22;37713;53.254;6.460;2023-06-22T02:48:08;15.50;99.90
51637;DHT22;37713;53.254;6.460;2023-06-22T02:50:33;15.50;99.90
51637;DHT22;37713;53.254;6.460;2023-06-22T02:52:59;15.50;99.90
51637;DHT22;37713;53.254;6.460;2023-06-22T02:55:25;15.50;99.90
51637;DHT22;37713;53.254;6.460;2023-06-22T02:57:51;15.50;99.90
51637;DHT22;37713;53.254;6.460;2023-06-22T03:00:19;15.60;99.90
51637;DHT22;37713;53.254;6.460;2023-06-22T03:02:48;15.60;99.90
51637;DHT22;37713;53.254;6.460;2023-06-22T03:05:15;15.60;99.90
51637;DHT22;37713;53.254;6.460;2023-06-22T03:07:44;15.60;99.90
51637;DHT22;37713;53.254;6.460;2023-06-22T03:10:11;15.50;99.90
51637;DHT22;37713;53.254;6.460;2023-06-22T03:12:38;15.50;99.90
51637;DHT22;37713;53.254;6.460;2023-06-22T03:15:08;15.50;99.90
51637;DHT22;37713;53.254;6.460;2023-06-22T03:17:34;15.50;99.90
51637;DHT22;37713;53.254;6.460;2023-06-22T03:20:01;15.50;99.90
51637;DHT22;37713;53.254;6.460;2023-06-22T03:22:31;15.50;99.90
51637;DHT22;37713;53.254;6.460;2023-06-22T03:24:57;15.50;99.90
51637;DHT22;37713;53.254;6.460;2023-06-22T03:27:23;15.50;99.90
51637;DHT22;37713;53.254;6.460;2023-06-22T03:29:49;15.50;99.90
51637;DHT22;37713;53.254;6.460;2023-06-22T03:32:14;15.50;99.90
51637;DHT22;37713;53.254;6.460;2023-06-22T03:34:40;15.50;99.90
51637;DHT22;37713;53.254;6.460;2023-06-22T03:37:06;15.60;99.90
51637;DHT22;37713;53.254;6.460;2023-06-22T03:39:32;15.50;99.90
51637;DHT22;37713;53.254;6.460;2023-06-22T03:41:57;15.60;99.90
51637;DHT22;37713;53.254;6.460;2023-06-22T03:44:23;15.60;99.90
51637;DHT22;37713;53.254;6.460;2023-06-22T03:46:49;15.50;99.90
51637;DHT22;37713;53.254;6.460;2023-06-22T03:49:15;15.60;99.90
51637;DHT22;37713;53.254;6.460;2023-06-22T03:51:40;15.60;99.90
51637;DHT22;37713;53.254;6.460;2023-06-22T03:54:06;15.70;99.90
51637;DHT22;37713;53.254;6.460;2023-06-22T03:56:32;15.70;99.90
51637;DHT22;37713;53.254;6.460;2023-06-22T03:58:58;15.80;99.90
51637;DHT22;37713;53.254;6.460;2023-06-22T04:01:23;15.80;99.90
51637;DHT22;37713;53.254;6.460;2023-06-22T04:03:49;15.80;99.90
51637;DHT22;37713;53.254;6.460;2023-06-22T04:06:15;15.80;99.90
51637;DHT22;37713;53.254;6.460;2023-06-22T04:08:41;15.90;99.90
51637;DHT22;37713;53.254;6.460;2023-06-22T04:11:07;15.90;99.90
51637;DHT22;37713;53.254;6.460;2023-06-22T04:13:33;15.90;99.90
51637;DHT22;37713;53.254;6.460;2023-06-22T04:15:58;15.90;99.90
51637;DHT22;37713;53.254;6.460;2023-06-22T04:18:26;15.90;99.90
51637;DHT22;37713;53.254;6.460;2023-06-22T04:20:52;15.90;99.90
51637;DHT22;37713;53.254;6.460;2023-06-22T04:23:18;15.90;99.90
51637;DHT22;37713;53.254;6.460;2023-06-22T04:25:44;15.90;99.90
51637;DHT22;37713;53.254;6.460;2023-06-22T04:28:09;15.90;99.90
51637;DHT22;37713;53.254;6.460;2023-06-22T04:30:38;15.90;99.90
51637;DHT22;37713;53.254;6.460;2023-06-22T04:33:15;16.00;99.90
51637;DHT22;37713;53.254;6.460;2023-06-22T04:35:42;16.00;99.90
51637;DHT22;37713;53.254;6.460;2023-06-22T04:38:13;16.00;99.90
51637;DHT22;37713;53.254;6.460;2023-06-22T04:40:39;16.10;99.90
51637;DHT22;37713;53.254;6.460;2023-06-22T04:43:05;16.10;99.90
51637;DHT22;37713;53.254;6.460;2023-06-22T04:45:32;16.20;99.90
51637;DHT22;37713;53.254;6.460;2023-06-22T04:47:59;16.30;99.90
51637;DHT22;37713;53.254;6.460;2023-06-22T04:50:25;16.40;99.90
51637;DHT22;37713;53.254;6.460;2023-06-22T04:52:51;16.40;99.90
51637;DHT22;37713;53.254;6.460;2023-06-22T04:55:17;16.50;99.90
51637;DHT22;37713;53.254;6.460;2023-06-22T04:57:45;16.60;99.90
51637;DHT22;37713;53.254;6.460;2023-06-22T05:00:15;16.60;99.90
51637;DHT22;37713;53.254;6.460;2023-06-22T05:02:43;16.70;99.90
51637;DHT22;37713;53.254;6.460;2023-06-22T05:05:10;16.80;99.90
51637;DHT22;37713;53.254;6.460;2023-06-22T05:07:43;16.80;99.90
51637;DHT22;37713;53.254;6.460;2023-06-22T05:10:10;16.90;99.90
51637;DHT22;37713;53.254;6.460;2023-06-22T05:12:38;17.00;99.90
51637;DHT22;37713;53.254;6.460;2023-06-22T05:15:05;17.00;99.90
51637;DHT22;37713;53.254;6.460;2023-06-22T05:17:31;17.10;99.90
51637;DHT22;37713;53.254;6.460;2023-06-22T05:19:57;17.20;99.90
51637;DHT22;37713;53.254;6.460;2023-06-22T05:22:23;17.20;99.90
51637;DHT22;37713;53.254;6.460;2023-06-22T05:24:49;17.30;99.90
51637;DHT22;37713;53.254;6.460;2023-06-22T05:27:14;17.40;99.90
51637;DHT22;37713;53.254;6.460;2023-06-22T05:29:40;17.40;99.90
51637;DHT22;37713;53.254;6.460;2023-06-22T05:32:08;17.40;99.90
51637;DHT22;37713;53.254;6.460;2023-06-22T05:34:34;17.50;99.90
51637;DHT22;37713;53.254;6.460;2023-06-22T05:37:00;17.60;99.90
51637;DHT22;37713;53.254;6.460;2023-06-22T05:39:25;17.70;99.90
51637;DHT22;37713;53.254;6.460;2023-06-22T05:41:52;17.80;99.90
51637;DHT22;37713;53.254;6.460;2023-06-22T05:44:18;17.90;99.90
51637;DHT22;37713;53.254;6.460;2023-06-22T05:46:44;18.00;99.90
51637;DHT22;37713;53.254;6.460;2023-06-22T05:49:12;18.20;99.90
51637;DHT22;37713;53.254;6.460;2023-06-22T05:51:38;18.30;99.90
51637;DHT22;37713;53.254;6.460;2023-06-22T05:54:04;18.50;99.90
51637;DHT22;37713;53.254;6.460;2023-06-22T05:56:30;18.60;99.90
51637;DHT22;37713;53.254;6.460;2023-06-22T05:58:56;18.70;99.90
51637;DHT22;37713;53.254;6.460;2023-06-22T06:01:22;18.90;99.90
51637;DHT22;37713;53.254;6.460;2023-06-22T06:03:48;19.00;99.90
51637;DHT22;37713;53.254;6.460;2023-06-22T06:06:15;19.00;99.90
51637;DHT22;37713;53.254;6.460;2023-06-22T06:08:41;19.10;99.90
51637;DHT22;37713;53.254;6.460;2023-06-22T06:11:07;19.20;99.90
51637;DHT22;37713;53.254;6.460;2023-06-22T06:13:32;19.30;99.90
51637;DHT22;37713;53.254;6.460;2023-06-22T06:15:58;19.40;99.90
51637;DHT22;37713;53.254;6.460;2023-06-22T06:18:25;19.50;99.90
51637;DHT22;37713;53.254;6.460;2023-06-22T06:20:51;19.60;99.90
51637;DHT22;37713;53.254;6.460;2023-06-22T06:23:16;19.90;99.90
51637;DHT22;37713;53.254;6.460;2023-06-22T06:25:42;20.10;99.90
51637;DHT22;37713;53.254;6.460;2023-06-22T06:28:08;20.40;99.90
51637;DHT22;37713;53.254;6.460;2023-06-22T06:30:34;20.70;99.90
51637;DHT22;37713;53.254;6.460;2023-06-22T06:33:02;21.10;99.90
51637;DHT22;37713;53.254;6.460;2023-06-22T06:35:30;21.60;99.90
51637;DHT22;37713;53.254;6.460;2023-06-22T06:37:55;21.80;99.90
51637;DHT22;37713;53.254;6.460;2023-06-22T06:40:22;21.80;99.90
51637;DHT22;37713;53.254;6.460;2023-06-22T06:42:48;21.90;99.90
51637;DHT22;37713;53.254;6.460;2023-06-22T06:45:18;22.00;99.90
51637;DHT22;37713;53.254;6.460;2023-06-22T06:47:44;22.20;99.90
51637;DHT22;37713;53.254;6.460;2023-06-22T06:50:11;22.40;99.90
51637;DHT22;37713;53.254;6.460;2023-06-22T06:52:37;22.60;99.90
51637;DHT22;37713;53.254;6.460;2023-06-22T06:55:04;22.90;99.90
51637;DHT22;37713;53.254;6.460;2023-06-22T06:57:33;23.20;99.90
51637;DHT22;37713;53.254;6.460;2023-06-22T06:59:59;23.60;99.90
51637;DHT22;37713;53.254;6.460;2023-06-22T07:02:25;23.80;99.90
51637;DHT22;37713;53.254;6.460;2023-06-22T07:04:53;24.00;99.90
51637;DHT22;37713;53.254;6.460;2023-06-22T07:07:21;24.30;99.90
51637;DHT22;37713;53.254;6.460;2023-06-22T07:09:46;24.50;99.90
51637;DHT22;37713;53.254;6.460;2023-06-22T07:12:12;24.60;99.90
51637;DHT22;37713;53.254;6.460;2023-06-22T07:14:38;24.40;99.90
51637;DHT22;37713;53.254;6.460;2023-06-22T07:17:04;24.40;99.90
51637;DHT22;37713;53.254;6.460;2023-06-22T07:19:30;24.40;99.90
51637;DHT22;37713;53.254;6.460;2023-06-22T07:21:57;24.40;99.90
51637;DHT22;37713;53.254;6.460;2023-06-22T07:24:23;24.40;99.90
51637;DHT22;37713;53.254;6.460;2023-06-22T07:26:50;24.40;99.90
51637;DHT22;37713;53.254;6.460;2023-06-22T07:29:22;24.60;99.90
51637;DHT22;37713;53.254;6.460;2023-06-22T07:31:49;24.60;99.90
51637;DHT22;37713;53.254;6.460;2023-06-22T07:34:15;24.70;99.90
51637;DHT22;37713;53.254;6.460;2023-06-22T07:36:41;24.70;99.90
51637;DHT22;37713;53.254;6.460;2023-06-22T07:39:07;24.90;99.90
51637;DHT22;37713;53.254;6.460;2023-06-22T07:41:32;25.10;99.90
51637;DHT22;37713;53.254;6.460;2023-06-22T07:43:58;25.50;99.90
51637;DHT22;37713;53.254;6.460;2023-06-22T07:46:24;25.70;99.90
51637;DHT22;37713;53.254;6.460;2023-06-22T07:48:50;25.90;99.90
51637;DHT22;37713;53.254;6.460;2023-06-22T07:51:15;26.00;99.90
51637;DHT22;37713;53.254;6.460;2023-06-22T07:53:43;26.00;99.90
51637;DHT22;37713;53.254;6.460;2023-06-22T07:56:13;26.10;99.90
51637;DHT22;37713;53.254;6.460;2023-06-22T07:58:39;26.30;99.90
51637;DHT22;37713;53.254;6.460;2023-06-22T08:01:05;26.80;99.90
51637;DHT22;37713;53.254;6.460;2023-06-22T08:03:32;27.20;99.90
51637;DHT22;37713;53.254;6.460;2023-06-22T08:05:57;27.30;99.90
51637;DHT22;37713;53.254;6.460;2023-06-22T08:08:23;27.10;99.90
51637;DHT22;37713;53.254;6.460;2023-06-22T08:10:50;26.70;99.90
51637;DHT22;37713;53.254;6.460;2023-06-22T08:13:15;26.40;99.90
51637;DHT22;37713;53.254;6.460;2023-06-22T08:15:41;26.30;99.90
51637;DHT22;37713;53.254;6.460;2023-06-22T08:18:07;26.10;99.90
51637;DHT22;37713;53.254;6.460;2023-06-22T08:20:32;26.10;99.90
51637;DHT22;37713;53.254;6.460;2023-06-22T08:22:59;26.10;99.90
51637;DHT22;37713;53.254;6.460;2023-06-22T08:25:30;26.10;99.90
51637;DHT22;37713;53.254;6.460;2023-06-22T08:27:56;26.10;99.90
51637;DHT22;37713;53.254;6.460;2023-06-22T08:30:22;26.10;99.90
51637;DHT22;37713;53.254;6.460;2023-06-22T08:32:48;26.10;99.90
51637;DHT22;37713;53.254;6.460;2023-06-22T08:35:13;26.10;99.90
51637;DHT22;37713;53.254;6.460;2023-06-22T08:37:39;26.10;99.90
51637;DHT22;37713;53.254;6.460;2023-06-22T08:40:07;26.10;99.90
51637;DHT22;37713;53.254;6.460;2023-06-22T08:42:34;26.30;99.90
51637;DHT22;37713;53.254;6.460;2023-06-22T08:45:00;26.30;99.90
51637;DHT22;37713;53.254;6.460;2023-06-22T08:47:28;26.30;99.90
51637;DHT22;37713;53.254;6.460;2023-06-22T08:49:53;26.30;99.90
51637;DHT22;37713;53.254;6.460;2023-06-22T08:52:20;26.30;99.90
51637;DHT22;37713;53.254;6.460;2023-06-22T08:54:46;26.20;99.90
51637;DHT22;37713;53.254;6.460;2023-06-22T08:57:12;26.30;99.90
51637;DHT22;37713;53.254;6.460;2023-06-22T08:59:38;26.30;99.90
51637;DHT22;37713;53.254;6.460;2023-06-22T09:02:04;26.40;99.90
51637;DHT22;37713;53.254;6.460;2023-06-22T09:04:29;26.50;99.90
51637;DHT22;37713;53.254;6.460;2023-06-22T09:06:57;26.50;99.90
51637;DHT22;37713;53.254;6.460;2023-06-22T09:09:23;26.70;99.90
51637;DHT22;37713;53.254;6.460;2023-06-22T09:11:49;26.80;99.90
51637;DHT22;37713;53.254;6.460;2023-06-22T09:14:15;26.60;99.90
51637;DHT22;37713;53.254;6.460;2023-06-22T09:16:40;26.70;99.90
51637;DHT22;37713;53.254;6.460;2023-06-22T09:19:06;26.60;99.90
51637;DHT22;37713;53.254;6.460;2023-06-22T09:21:32;26.60;99.90
51637;DHT22;37713;53.254;6.460;2023-06-22T09:23:58;26.50;99.90
51637;DHT22;37713;53.254;6.460;2023-06-22T09:26:23;26.40;99.90
51637;DHT22;37713;53.254;6.460;2023-06-22T09:28:49;26.40;99.90
51637;DHT22;37713;53.254;6.460;2023-06-22T09:31:15;26.40;99.90
51637;DHT22;37713;53.254;6.460;2023-06-22T09:33:42;26.50;99.90
51637;DHT22;37713;53.254;6.460;2023-06-22T09:36:08;26.50;99.90
51637;DHT22;37713;53.254;6.460;2023-06-22T09:38:38;26.60;99.90
51637;DHT22;37713;53.254;6.460;2023-06-22T09:41:04;26.70;99.90
51637;DHT22;37713;53.254;6.460;2023-06-22T09:43:32;26.80;99.90
51637;DHT22;37713;53.254;6.460;2023-06-22T09:45:58;27.00;99.90
51637;DHT22;37713;53.254;6.460;2023-06-22T09:48:23;27.00;99.90
51637;DHT22;37713;53.254;6.460;2023-06-22T09:50:49;27.00;99.90
51637;DHT22;37713;53.254;6.460;2023-06-22T09:53:15;27.00;99.90
51637;DHT22;37713;53.254;6.460;2023-06-22T09:55:41;27.00;99.90
51637;DHT22;37713;53.254;6.460;2023-06-22T09:58:07;27.00;99.90
51637;DHT22;37713;53.254;6.460;2023-06-22T10:00:34;27.00;99.90
51637;DHT22;37713;53.254;6.460;2023-06-22T10:02:59;27.00;99.90
51637;DHT22;37713;53.254;6.460;2023-06-22T10:05:25;27.00;99.90
51637;DHT22;37713;53.254;6.460;2023-06-22T10:07:51;27.00;99.90
51637;DHT22;37713;53.254;6.460;2023-06-22T10:10:17;27.00;99.90
51637;DHT22;37713;53.254;6.460;2023-06-22T10:12:48;26.80;99.90
51637;DHT22;37713;53.254;6.460;2023-06-22T10:15:19;26.70;99.90
51637;DHT22;37713;53.254;6.460;2023-06-22T10:17:46;26.60;99.90
51637;DHT22;37713;53.254;6.460;2023-06-22T10:20:13;26.50;99.90
51637;DHT22;37713;53.254;6.460;2023-06-22T10:22:43;26.60;99.90
51637;DHT22;37713;53.254;6.460;2023-06-22T10:25:12;26.40;99.90
51637;DHT22;37713;53.254;6.460;2023-06-22T10:27:39;26.30;99.90
51637;DHT22;37713;53.254;6.460;2023-06-22T10:30:09;26.30;99.90
51637;DHT22;37713;53.254;6.460;2023-06-22T10:32:35;26.10;99.90
51637;DHT22;37713;53.254;6.460;2023-06-22T10:35:02;26.00;99.90
51637;DHT22;37713;53.254;6.460;2023-06-22T10:37:28;26.00;99.90
51637;DHT22;37713;53.254;6.460;2023-06-22T10:39:54;26.10;99.90
51637;DHT22;37713;53.254;6.460;2023-06-22T10:42:19;26.10;99.90
51637;DHT22;37713;53.254;6.460;2023-06-22T10:44:45;26.10;99.90
51637;DHT22;37713;53.254;6.460;2023-06-22T10:47:11;26.10;99.90
51637;DHT22;37713;53.254;6.460;2023-06-22T10:49:38;26.20;99.90
51637;DHT22;37713;53.254;6.460;2023-06-22T10:52:07;26.30;99.90
51637;DHT22;37713;53.254;6.460;2023-06-22T10:54:33;26.40;99.90
51637;DHT22;37713;53.254;6.460;2023-06-22T10:57:00;26.30;99.90
51637;DHT22;37713;53.254;6.460;2023-06-22T10:59:26;26.40;99.90
51637;DHT22;37713;53.254;6.460;2023-06-22T11:01:53;26.40;99.90
51637;DHT22;37713;53.254;6.460;2023-06-22T11:04:19;26.50;99.90
51637;DHT22;37713;53.254;6.460;2023-06-22T11:06:44;26.70;99.90
51637;DHT22;37713;53.254;6.460;2023-06-22T11:09:10;26.70;99.90
51637;DHT22;37713;53.254;6.460;2023-06-22T11:11:36;26.50;99.90
51637;DHT22;37713;53.254;6.460;2023-06-22T11:14:02;26.50;99.90
51637;DHT22;37713;53.254;6.460;2023-06-22T11:16:28;26.40;99.90
51637;DHT22;37713;53.254;6.460;2023-06-22T11:18:54;26.40;99.90
51637;DHT22;37713;53.254;6.460;2023-06-22T11:21:19;26.30;99.90
51637;DHT22;37713;53.254;6.460;2023-06-22T11:23:45;26.30;99.90
51637;DHT22;37713;53.254;6.460;2023-06-22T11:26:11;26.40;99.90
51637;DHT22;37713;53.254;6.460;2023-06-22T11:28:37;26.40;99.90
51637;DHT22;37713;53.254;6.460;2023-06-22T11:31:03;26.30;99.90
51637;DHT22;37713;53.254;6.460;2023-06-22T11:33:29;26.30;99.90
51637;DHT22;37713;53.254;6.460;2023-06-22T11:35:54;26.20;99.90
51637;DHT22;37713;53.254;6.460;2023-06-22T11:38:22;26.20;99.90
51637;DHT22;37713;53.254;6.460;2023-06-22T11:40:47;26.20;99.90
51637;DHT22;37713;53.254;6.460;2023-06-22T11:43:13;26.20;99.90
51637;DHT22;37713;53.254;6.460;2023-06-22T11:45:40;26.10;99.90
51637;DHT22;37713;53.254;6.460;2023-06-22T11:48:06;25.90;99.90
51637;DHT22;37713;53.254;6.460;2023-06-22T11:50:32;25.80;99.90
51637;DHT22;37713;53.254;6.460;2023-06-22T11:53:02;25.90;99.90
51637;DHT22;37713;53.254;6.460;2023-06-22T11:55:28;26.00;99.90
51637;DHT22;37713;53.254;6.460;2023-06-22T11:57:55;25.90;99.90
51637;DHT22;37713;53.254;6.460;2023-06-22T12:00:22;25.90;99.90
51637;DHT22;37713;53.254;6.460;2023-06-22T12:02:50;25.90;99.90
51637;DHT22;37713;53.254;6.460;2023-06-22T12:05:19;25.80;99.90
51637;DHT22;37713;53.254;6.460;2023-06-22T12:07:46;25.70;99.90
51637;DHT22;37713;53.254;6.460;2023-06-22T12:10:12;25.60;99.90
51637;DHT22;37713;53.254;6.460;2023-06-22T12:12:38;25.70;99.90
51637;DHT22;37713;53.254;6.460;2023-06-22T12:15:04;25.70;99.90
51637;DHT22;37713;53.254;6.460;2023-06-22T12:17:30;25.80;99.90
51637;DHT22;37713;53.254;6.460;2023-06-22T12:19:56;25.70;99.90
51637;DHT22;37713;53.254;6.460;2023-06-22T12:22:21;25.50;99.90
51637;DHT22;37713;53.254;6.460;2023-06-22T12:24:47;25.50;99.90
51637;DHT22;37713;53.254;6.460;2023-06-22T12:27:13;25.20;99.90
51637;DHT22;37713;53.254;6.460;2023-06-22T12:29:42;25.20;99.90
51637;DHT22;37713;53.254;6.460;2023-06-22T12:32:07;25.10;99.90
51637;DHT22;37713;53.254;6.460;2023-06-22T12:34:33;25.10;99.90
51637;DHT22;37713;53.254;6.460;2023-06-22T12:36:59;25.00;99.90
51637;DHT22;37713;53.254;6.460;2023-06-22T12:39:25;24.90;99.90
51637;DHT22;37713;53.254;6.460;2023-06-22T12:41:50;25.00;99.90
51637;DHT22;37713;53.254;6.460;2023-06-22T12:44:17;24.90;99.90
51637;DHT22;37713;53.254;6.460;2023-06-22T12:46:42;24.90;99.90
51637;DHT22;37713;53.254;6.460;2023-06-22T12:49:08;24.90;99.90
51637;DHT22;37713;53.254;6.460;2023-06-22T12:51:43;24.80;99.90
51637;DHT22;37713;53.254;6.460;2023-06-22T12:54:09;24.90;99.90
51637;DHT22;37713;53.254;6.460;2023-06-22T12:56:35;24.80;99.90
51637;DHT22;37713;53.254;6.460;2023-06-22T12:59:01;24.70;99.90
51637;DHT22;37713;53.254;6.460;2023-06-22T13:01:28;24.70;99.90
51637;DHT22;37713;53.254;6.460;2023-06-22T13:03:54;24.70;99.90
51637;DHT22;37713;53.254;6.460;2023-06-22T13:06:19;24.70;99.90
51637;DHT22;37713;53.254;6.460;2023-06-22T13:08:45;24.70;99.90
51637;DHT22;37713;53.254;6.460;2023-06-22T13:11:11;24.80;99.90
51637;DHT22;37713;53.254;6.460;2023-06-22T13:13:38;24.80;99.90
51637;DHT22;37713;53.254;6.460;2023-06-22T13:16:04;24.80;99.90
51637;DHT22;37713;53.254;6.460;2023-06-22T13:18:29;24.90;99.90
51637;DHT22;37713;53.254;6.460;2023-06-22T13:20:55;24.70;99.90
51637;DHT22;37713;53.254;6.460;2023-06-22T13:23:21;24.70;99.90
51637;DHT22;37713;53.254;6.460;2023-06-22T13:25:47;24.60;99.90
51637;DHT22;37713;53.254;6.460;2023-06-22T13:28:13;24.60;99.90
51637;DHT22;37713;53.254;6.460;2023-06-22T13:30:40;24.60;99.90
51637;DHT22;37713;53.254;6.460;2023-06-22T13:33:06;24.60;99.90
51637;DHT22;37713;53.254;6.460;2023-06-22T13:35:31;24.50;99.90
51637;DHT22;37713;53.254;6.460;2023-06-22T13:37:57;24.40;99.90
51637;DHT22;37713;53.254;6.460;2023-06-22T13:40:23;24.40;99.90
51637;DHT22;37713;53.254;6.460;2023-06-22T13:42:49;24.30;99.90
51637;DHT22;37713;53.254;6.460;2023-06-22T13:45:15;24.40;99.90
51637;DHT22;37713;53.254;6.460;2023-06-22T13:47:42;24.40;99.90
51637;DHT22;37713;53.254;6.460;2023-06-22T13:50:09;24.30;99.90
51637;DHT22;37713;53.254;6.460;2023-06-22T13:52:35;24.20;99.90
51637;DHT22;37713;53.254;6.460;2023-06-22T13:55:02;24.10;99.90
51637;DHT22;37713;53.254;6.460;2023-06-22T13:57:27;24.20;99.90
51637;DHT22;37713;53.254;6.460;2023-06-22T13:59:53;24.10;99.90
51637;DHT22;37713;53.254;6.460;2023-06-22T14:02:19;24.10;99.90
51637;DHT22;37713;53.254;6.460;2023-06-22T14:04:45;24.00;99.90
51637;DHT22;37713;53.254;6.460;2023-06-22T14:07:11;23.90;99.90
51637;DHT22;37713;53.254;6.460;2023-06-22T14:09:36;23.90;99.90
51637;DHT22;37713;53.254;6.460;2023-06-22T14:12:06;23.90;99.90
51637;DHT22;37713;53.254;6.460;2023-06-22T14:14:32;23.80;99.90
51637;DHT22;37713;53.254;6.460;2023-06-22T14:16:59;23.80;99.90
51637;DHT22;37713;53.254;6.460;2023-06-22T14:19:24;23.80;99.90
51637;DHT22;37713;53.254;6.460;2023-06-22T14:21:50;23.70;99.90
51637;DHT22;37713;53.254;6.460;2023-06-22T14:24:16;23.60;99.90
51637;DHT22;37713;53.254;6.460;2023-06-22T14:26:42;23.40;99.90
51637;DHT22;37713;53.254;6.460;2023-06-22T14:29:08;23.20;99.90
51637;DHT22;37713;53.254;6.460;2023-06-22T14:31:34;23.10;99.90
51637;DHT22;37713;53.254;6.460;2023-06-22T14:33:59;23.10;99.90
51637;DHT22;37713;53.254;6.460;2023-06-22T14:36:26;23.00;99.90
51637;DHT22;37713;53.254;6.460;2023-06-22T14:38:51;23.00;99.90
51637;DHT22;37713;53.254;6.460;2023-06-22T14:41:17;22.90;99.90
51637;DHT22;37713;53.254;6.460;2023-06-22T14:43:47;22.90;99.90
51637;DHT22;37713;53.254;6.460;2023-06-22T14:46:18;22.80;99.90
51637;DHT22;37713;53.254;6.460;2023-06-22T14:48:44;22.70;99.90
51637;DHT22;37713;53.254;6.460;2023-06-22T14:51:10;22.60;99.90
51637;DHT22;37713;53.254;6.460;2023-06-22T14:53:37;22.70;99.90
51637;DHT22;37713;53.254;6.460;2023-06-22T14:56:03;22.70;99.90
51637;DHT22;37713;53.254;6.460;2023-06-22T14:58:30;22.60;99.90
51637;DHT22;37713;53.254;6.460;2023-06-22T15:01:02;22.60;99.90
51637;DHT22;37713;53.254;6.460;2023-06-22T15:03:31;22.60;99.90
51637;DHT22;37713;53.254;6.460;2023-06-22T15:05:58;22.50;99.90
51637;DHT22;37713;53.254;6.460;2023-06-22T15:08:24;22.50;99.90
51637;DHT22;37713;53.254;6.460;2023-06-22T15:10:51;22.50;99.90
51637;DHT22;37713;53.254;6.460;2023-06-22T15:13:18;22.50;99.90
51637;DHT22;37713;53.254;6.460;2023-06-22T15:15:45;22.60;99.90
51637;DHT22;37713;53.254;6.460;2023-06-22T15:18:16;22.60;99.90
51637;DHT22;37713;53.254;6.460;2023-06-22T15:20:42;22.60;99.90
51637;DHT22;37713;53.254;6.460;2023-06-22T15:23:12;22.50;99.90
51637;DHT22;37713;53.254;6.460;2023-06-22T15:25:38;22.50;99.90
51637;DHT22;37713;53.254;6.460;2023-06-22T15:28:04;22.40;99.90
51637;DHT22;37713;53.254;6.460;2023-06-22T15:30:30;22.30;99.90
51637;DHT22;37713;53.254;6.460;2023-06-22T15:32:57;22.30;99.90
51637;DHT22;37713;53.254;6.460;2023-06-22T15:35:24;22.20;99.90